Portada
METAR-TAF:

METAR-TAF

Aeropuertos :

Istres, Francia

latitud: 43-31N, longitud: 004-56E, altitud: 23 m

Observación

El informe se hizo hace 10 minutos, a las 18:30 UTC
Viento 4 kt del este-sureste
Temperatura 26°C
Humedad 74%
Presión 1015 hPa
Visibilidad 10 km o más
sin nubes por debajo de 1500 m y sin presencia de cumulonimbus.

METAR: LFMI 201830Z AUTO 11004KT CAVOK 26/21 Q1015 NOSIG

Hora: 20:40 (18:40 UTC)

Pronóstico

El informe se hizo hace 4 horas y 40 minutos, a las 14:00 UTC
Pronóstico válido del 20 a las 15 UTC al 21 a las 15 UTC
Viento 10 kt del suroeste
Visibilidad 10 km o más
sin nubes por debajo de 1500 m y sin presencia de cumulonimbus.
Evolucionando progresivamente
del 20 a las 17 UTC al 20 a las 19 UTC
Viento 5 kt con dirección variable
Evolucionando progresivamente
del 21 a las 11 UTC al 21 a las 12 UTC
Viento 10 kt del suroeste

TAF: LFMI 201400Z 2015/2115 23010KT CAVOK BECMG 2017/2019 VRB05KT BECMG 2111/2112 22010KT

Observaciones y pronósticos meteorológicos de más de 4000 aeropuertos (mensajes METAR y TAF).

Los puntos amarillos y rojos representan las estaciones disponibles.

Ponga el ratón en el punto deseado para ver el nombre de la estación.

Haga clic para ver las observaciones y los pronósticos meteorológicos.

Para cambiar el mapa : haga clic en los botones verdes con una cruz de color negro para hacer un zoom, en el botón verde con un guión para alejar o en las flechas verdes para mapas adyacentes.


METAR-TAF: